createdAt,value
2022-12-22T00:00:20.588Z,810.00
2022-12-22T00:00:50.696Z,810.00
2022-12-22T00:01:20.749Z,811.00
2022-12-22T00:01:50.878Z,807.00
2022-12-22T00:02:21.147Z,810.00
2022-12-22T00:02:51.151Z,808.00
2022-12-22T00:03:21.073Z,812.00
2022-12-22T00:03:51.184Z,810.00
2022-12-22T00:04:21.065Z,808.00
2022-12-22T00:04:51.003Z,808.00
2022-12-22T00:05:21.044Z,807.00
2022-12-22T00:05:51.071Z,807.00
2022-12-22T00:06:21.104Z,806.00
2022-12-22T00:06:51.154Z,800.00
2022-12-22T00:07:21.197Z,797.00
2022-12-22T00:07:51.220Z,796.00
2022-12-22T00:08:21.287Z,799.00
2022-12-22T00:08:51.291Z,796.00
2022-12-22T00:09:21.350Z,798.00
2022-12-22T00:09:51.382Z,796.00
2022-12-22T00:10:21.432Z,798.00
2022-12-22T00:10:51.462Z,799.00
2022-12-22T00:11:21.530Z,800.00
2022-12-22T00:11:51.578Z,800.00
2022-12-22T00:12:21.624Z,801.00
2022-12-22T00:12:51.656Z,801.00
2022-12-22T00:13:21.699Z,802.00
2022-12-22T00:13:51.750Z,801.00
2022-12-22T00:14:21.786Z,802.00
2022-12-22T00:14:51.864Z,799.00
2022-12-22T00:15:21.950Z,800.00
2022-12-22T00:15:52.034Z,797.00
2022-12-22T00:16:22.246Z,798.00
2022-12-22T00:16:52.296Z,796.00
2022-12-22T00:17:22.276Z,797.00
2022-12-22T00:17:52.371Z,798.00
2022-12-22T00:18:22.452Z,801.00
2022-12-22T00:18:52.545Z,793.00
2022-12-22T00:19:22.632Z,792.00
2022-12-22T00:19:52.706Z,794.00
2022-12-22T00:20:22.792Z,798.00
2022-12-22T00:20:52.880Z,799.00
2022-12-22T00:21:22.965Z,798.00
2022-12-22T00:21:53.057Z,796.00
2022-12-22T00:22:23.123Z,798.00
2022-12-22T00:22:53.202Z,798.00
2022-12-22T00:23:23.293Z,798.00
2022-12-22T00:23:53.384Z,796.00
2022-12-22T00:24:23.463Z,796.00
2022-12-22T00:24:53.546Z,797.00
2022-12-22T00:25:23.640Z,795.00
2022-12-22T00:25:53.731Z,796.00
2022-12-22T00:26:23.806Z,786.00
2022-12-22T00:26:53.887Z,789.00
2022-12-22T00:27:23.981Z,790.00
2022-12-22T00:27:54.068Z,792.00
2022-12-22T00:28:24.142Z,789.00
2022-12-22T00:28:54.234Z,790.00
2022-12-22T00:29:24.307Z,788.00
2022-12-22T00:29:54.382Z,788.00
2022-12-22T00:30:24.464Z,786.00
2022-12-22T00:30:54.593Z,786.00
2022-12-22T00:31:24.758Z,788.00
2022-12-22T00:31:54.791Z,790.00
2022-12-22T00:32:24.852Z,789.00
2022-12-22T00:32:54.927Z,787.00
2022-12-22T00:33:25.013Z,790.00
2022-12-22T00:33:55.098Z,795.00
2022-12-22T00:34:29.371Z,783.00
2022-12-22T00:34:55.248Z,791.00
2022-12-22T00:35:25.356Z,787.00
2022-12-22T00:35:55.441Z,785.00
2022-12-22T00:36:25.523Z,782.00
2022-12-22T00:36:55.609Z,782.00
2022-12-22T00:37:25.692Z,784.00
2022-12-22T00:37:55.791Z,784.00
2022-12-22T00:38:25.863Z,787.00
2022-12-22T00:38:55.946Z,788.00
2022-12-22T00:39:26.043Z,791.00
2022-12-22T00:39:56.132Z,790.00
2022-12-22T00:40:26.570Z,792.00
2022-12-22T00:40:56.300Z,791.00
2022-12-22T00:41:26.383Z,790.00
2022-12-22T00:41:56.476Z,789.00
2022-12-22T00:42:26.476Z,789.00
2022-12-22T00:42:56.547Z,787.00
2022-12-22T00:43:26.645Z,788.00
2022-12-22T00:43:56.727Z,791.00
2022-12-22T00:44:26.803Z,787.00
2022-12-22T00:44:56.896Z,786.00
2022-12-22T00:45:26.980Z,785.00
2022-12-22T00:45:57.167Z,789.00
2022-12-22T00:46:27.256Z,788.00
2022-12-22T00:46:57.259Z,785.00
2022-12-22T00:47:27.308Z,783.00
2022-12-22T00:47:57.400Z,778.00
2022-12-22T00:48:27.564Z,791.00
2022-12-22T00:48:57.502Z,785.00
2022-12-22T00:49:27.589Z,782.00
2022-12-22T00:49:57.660Z,783.00
2022-12-22T00:50:27.759Z,785.00
2022-12-22T00:50:57.844Z,783.00
2022-12-22T00:51:27.935Z,784.00
2022-12-22T00:51:58.023Z,785.00
2022-12-22T00:52:28.098Z,784.00
2022-12-22T00:52:58.176Z,785.00
2022-12-22T00:53:28.265Z,784.00
2022-12-22T00:53:58.354Z,783.00
2022-12-22T00:54:28.437Z,784.00
2022-12-22T00:54:58.508Z,786.00
2022-12-22T00:55:28.537Z,783.00
2022-12-22T00:55:58.616Z,784.00
2022-12-22T00:56:28.706Z,785.00
2022-12-22T00:56:58.789Z,784.00
2022-12-22T00:57:28.887Z,783.00
2022-12-22T00:57:58.944Z,782.00
2022-12-22T00:58:29.024Z,781.00
2022-12-22T00:58:59.115Z,778.00
2022-12-22T00:59:29.195Z,778.00
2022-12-22T00:59:59.275Z,778.00
2022-12-22T01:00:29.396Z,781.00
2022-12-22T01:00:59.419Z,782.00
2022-12-22T01:01:29.492Z,781.00
2022-12-22T01:01:59.623Z,782.00
2022-12-22T01:02:29.784Z,779.00
2022-12-22T01:02:59.758Z,779.00
2022-12-22T01:03:29.728Z,777.00
2022-12-22T01:03:59.745Z,777.00
2022-12-22T01:04:29.828Z,778.00
2022-12-22T01:04:59.845Z,777.00
2022-12-22T01:05:29.872Z,777.00
2022-12-22T01:05:59.910Z,778.00
2022-12-22T01:06:29.941Z,776.00
2022-12-22T01:06:59.988Z,776.00
2022-12-22T01:07:30.020Z,779.00
2022-12-22T01:08:00.087Z,779.00
2022-12-22T01:08:30.114Z,777.00
2022-12-22T01:09:00.163Z,775.00
2022-12-22T01:09:30.193Z,776.00
2022-12-22T01:10:00.248Z,777.00
2022-12-22T01:10:30.268Z,780.00
2022-12-22T01:11:00.320Z,781.00
2022-12-22T01:11:30.361Z,781.00
2022-12-22T01:12:00.404Z,782.00
2022-12-22T01:12:30.445Z,783.00
2022-12-22T01:13:00.487Z,782.00
2022-12-22T01:13:30.552Z,780.00
2022-12-22T01:14:00.606Z,780.00
2022-12-22T01:14:30.668Z,776.00
2022-12-22T01:15:00.734Z,777.00
2022-12-22T01:15:30.927Z,778.00
2022-12-22T01:16:00.965Z,779.00
2022-12-22T01:16:31.032Z,780.00
2022-12-22T01:17:01.076Z,779.00
2022-12-22T01:17:31.170Z,778.00
2022-12-22T01:18:01.219Z,777.00
2022-12-22T01:18:31.298Z,778.00
2022-12-22T01:19:01.389Z,777.00
2022-12-22T01:19:31.472Z,776.00
2022-12-22T01:20:01.608Z,776.00
2022-12-22T01:20:31.578Z,778.00
2022-12-22T01:21:01.664Z,776.00
2022-12-22T01:21:31.753Z,774.00
2022-12-22T01:22:01.830Z,776.00
2022-12-22T01:22:31.905Z,776.00
2022-12-22T01:23:01.993Z,776.00
2022-12-22T01:23:32.113Z,772.00
2022-12-22T01:24:02.187Z,774.00
2022-12-22T01:24:32.255Z,774.00
2022-12-22T01:25:02.363Z,775.00
2022-12-22T01:25:32.434Z,773.00
2022-12-22T01:26:02.526Z,773.00
2022-12-22T01:26:32.601Z,772.00
2022-12-22T01:27:02.678Z,768.00
2022-12-22T01:27:32.780Z,769.00
2022-12-22T01:28:02.873Z,768.00
2022-12-22T01:28:32.963Z,766.00
2022-12-22T01:29:03.042Z,767.00
2022-12-22T01:29:33.127Z,768.00
2022-12-22T01:30:03.211Z,768.00
2022-12-22T01:30:33.352Z,770.00
2022-12-22T01:31:03.387Z,770.00
2022-12-22T01:31:33.401Z,763.00
2022-12-22T01:32:03.499Z,760.00
2022-12-22T01:32:33.589Z,763.00
2022-12-22T01:33:03.816Z,765.00
2022-12-22T01:33:33.757Z,765.00
2022-12-22T01:34:03.844Z,764.00
2022-12-22T01:34:33.956Z,762.00
2022-12-22T01:35:04.052Z,761.00
2022-12-22T01:35:34.125Z,768.00
2022-12-22T01:36:04.222Z,759.00
2022-12-22T01:36:34.293Z,761.00
2022-12-22T01:37:04.381Z,765.00
2022-12-22T01:37:34.455Z,766.00
2022-12-22T01:38:04.530Z,767.00
2022-12-22T01:38:34.632Z,768.00
2022-12-22T01:39:04.718Z,766.00
2022-12-22T01:39:34.799Z,763.00
2022-12-22T01:40:04.877Z,764.00
2022-12-22T01:40:34.957Z,761.00
2022-12-22T01:41:05.059Z,761.00
2022-12-22T01:41:35.152Z,764.00
2022-12-22T01:42:05.234Z,763.00
2022-12-22T01:42:35.317Z,765.00
2022-12-22T01:43:05.398Z,762.00
2022-12-22T01:43:35.479Z,764.00
2022-12-22T01:44:05.581Z,767.00
2022-12-22T01:44:35.673Z,770.00
2022-12-22T01:45:05.761Z,769.00
2022-12-22T01:45:35.843Z,768.00
2022-12-22T01:46:05.971Z,766.00
2022-12-22T01:46:35.977Z,767.00
2022-12-22T01:47:05.950Z,767.00
2022-12-22T01:47:36.030Z,767.00
2022-12-22T01:48:06.117Z,764.00
2022-12-22T01:48:36.247Z,763.00
2022-12-22T01:49:06.306Z,760.00
2022-12-22T01:49:36.448Z,763.00
2022-12-22T01:50:06.415Z,772.00
2022-12-22T01:50:36.506Z,760.00
2022-12-22T01:51:06.613Z,765.00
2022-12-22T01:51:36.596Z,761.00
2022-12-22T01:52:06.653Z,759.00
2022-12-22T01:52:36.744Z,758.00
2022-12-22T01:53:06.829Z,759.00
2022-12-22T01:53:36.923Z,761.00
2022-12-22T01:54:06.999Z,760.00
2022-12-22T01:54:37.077Z,762.00
2022-12-22T01:55:07.170Z,759.00
2022-12-22T01:55:37.261Z,760.00
2022-12-22T01:56:07.341Z,763.00
2022-12-22T01:56:37.424Z,763.00
2022-12-22T01:57:07.511Z,762.00
2022-12-22T01:57:37.587Z,761.00
2022-12-22T01:58:07.675Z,760.00
2022-12-22T01:58:37.744Z,764.00
2022-12-22T01:59:07.954Z,762.00
2022-12-22T01:59:37.960Z,767.00
2022-12-22T02:00:08.036Z,768.00
2022-12-22T02:00:38.114Z,766.00
2022-12-22T02:01:08.295Z,766.00
2022-12-22T02:01:38.388Z,760.00
2022-12-22T02:02:08.487Z,761.00
2022-12-22T02:02:38.471Z,762.00
2022-12-22T02:03:08.459Z,762.00
2022-12-22T02:03:38.535Z,761.00
2022-12-22T02:04:08.495Z,769.00
2022-12-22T02:04:38.556Z,763.00
2022-12-22T02:05:08.599Z,755.00
2022-12-22T02:05:38.647Z,759.00
2022-12-22T02:06:08.670Z,758.00
2022-12-22T02:06:38.750Z,756.00
2022-12-22T02:07:08.800Z,757.00
2022-12-22T02:07:38.837Z,753.00
2022-12-22T02:08:08.871Z,753.00
2022-12-22T02:08:38.930Z,755.00
2022-12-22T02:09:08.955Z,754.00
2022-12-22T02:09:38.999Z,754.00
2022-12-22T02:10:09.027Z,748.00
2022-12-22T02:10:39.076Z,750.00
2022-12-22T02:11:09.146Z,750.00
2022-12-22T02:11:39.182Z,749.00
2022-12-22T02:12:09.213Z,751.00
2022-12-22T02:12:39.238Z,750.00
2022-12-22T02:13:09.324Z,752.00
2022-12-22T02:13:39.370Z,750.00
2022-12-22T02:14:09.409Z,752.00
2022-12-22T02:14:39.480Z,750.00
2022-12-22T02:15:09.550Z,749.00
2022-12-22T02:15:39.699Z,751.00
2022-12-22T02:16:09.779Z,752.00
2022-12-22T02:16:39.779Z,751.00
2022-12-22T02:17:09.865Z,749.00
2022-12-22T02:17:40.029Z,745.00
2022-12-22T02:18:09.985Z,744.00
2022-12-22T02:18:40.081Z,745.00
2022-12-22T02:19:10.183Z,744.00
2022-12-22T02:19:40.236Z,746.00
2022-12-22T02:20:10.329Z,743.00
2022-12-22T02:20:40.415Z,746.00
2022-12-22T02:21:10.501Z,745.00
2022-12-22T02:21:40.600Z,741.00
2022-12-22T02:22:10.690Z,740.00
2022-12-22T02:22:40.775Z,742.00
2022-12-22T02:23:10.881Z,741.00
2022-12-22T02:23:40.949Z,742.00
2022-12-22T02:24:11.048Z,741.00
2022-12-22T02:24:41.118Z,742.00
2022-12-22T02:25:11.207Z,743.00
2022-12-22T02:25:41.284Z,746.00
2022-12-22T02:26:11.368Z,745.00
2022-12-22T02:26:41.484Z,743.00
2022-12-22T02:27:11.567Z,744.00
2022-12-22T02:27:41.649Z,743.00
2022-12-22T02:28:11.731Z,744.00
2022-12-22T02:28:41.810Z,746.00
2022-12-22T02:29:11.899Z,746.00
2022-12-22T02:29:41.985Z,745.00
2022-12-22T02:30:12.070Z,745.00
2022-12-22T02:30:42.151Z,746.00
2022-12-22T02:31:12.294Z,745.00
2022-12-22T02:31:42.473Z,747.00
2022-12-22T02:32:12.342Z,751.00
2022-12-22T02:32:42.425Z,752.00
2022-12-22T02:33:12.508Z,737.00
2022-12-22T02:33:42.614Z,736.00
2022-12-22T02:34:12.722Z,741.00
2022-12-22T02:34:42.778Z,740.00
2022-12-22T02:35:12.870Z,742.00
2022-12-22T02:35:42.955Z,744.00
2022-12-22T02:36:13.061Z,744.00
2022-12-22T02:36:43.149Z,739.00
2022-12-22T02:37:13.213Z,739.00
2022-12-22T02:37:43.266Z,737.00
2022-12-22T02:38:13.349Z,741.00
2022-12-22T02:38:43.458Z,741.00
2022-12-22T02:39:13.516Z,742.00
2022-12-22T02:39:43.604Z,743.00
2022-12-22T02:40:13.740Z,743.00
2022-12-22T02:40:43.728Z,743.00
2022-12-22T02:41:13.821Z,742.00
2022-12-22T02:41:43.897Z,742.00
2022-12-22T02:42:13.987Z,738.00
2022-12-22T02:42:44.080Z,738.00
2022-12-22T02:43:14.150Z,735.00
2022-12-22T02:43:44.229Z,736.00
2022-12-22T02:44:14.313Z,737.00
2022-12-22T02:44:44.408Z,737.00
2022-12-22T02:45:14.491Z,735.00
2022-12-22T02:45:44.593Z,732.00
2022-12-22T02:46:14.691Z,732.00
2022-12-22T02:46:44.840Z,730.00
2022-12-22T02:47:14.835Z,733.00
2022-12-22T02:47:44.925Z,732.00
2022-12-22T02:48:15.010Z,733.00
2022-12-22T02:48:45.110Z,734.00
2022-12-22T02:49:15.220Z,732.00
2022-12-22T02:49:45.284Z,736.00
2022-12-22T02:50:15.370Z,742.00
2022-12-22T02:50:45.472Z,737.00
2022-12-22T02:51:15.530Z,737.00
2022-12-22T02:51:45.625Z,737.00
2022-12-22T02:52:15.724Z,735.00
2022-12-22T02:52:45.791Z,738.00
2022-12-22T02:53:15.869Z,736.00
2022-12-22T02:53:45.946Z,736.00
2022-12-22T02:54:16.031Z,736.00
2022-12-22T02:54:46.109Z,735.00
2022-12-22T02:55:16.184Z,731.00
2022-12-22T02:55:46.274Z,733.00
2022-12-22T02:56:16.319Z,732.00
2022-12-22T02:56:46.369Z,730.00
2022-12-22T02:57:16.443Z,731.00
2022-12-22T02:57:46.525Z,727.00
2022-12-22T02:58:16.607Z,730.00
2022-12-22T02:58:46.701Z,729.00
2022-12-22T02:59:16.790Z,725.00
2022-12-22T02:59:46.861Z,723.00
2022-12-22T03:00:16.942Z,728.00
2022-12-22T03:00:46.984Z,731.00
2022-12-22T03:01:17.134Z,731.00
2022-12-22T03:01:47.371Z,730.00
2022-12-22T03:02:17.338Z,729.00
2022-12-22T03:02:47.374Z,728.00
2022-12-22T03:03:17.409Z,727.00
2022-12-22T03:03:47.345Z,727.00
2022-12-22T03:04:17.339Z,730.00
2022-12-22T03:04:47.360Z,728.00
2022-12-22T03:05:17.403Z,727.00
2022-12-22T03:05:47.422Z,727.00
2022-12-22T03:06:17.480Z,727.00
2022-12-22T03:06:47.528Z,727.00
2022-12-22T03:07:17.565Z,731.00
2022-12-22T03:07:47.603Z,737.00
2022-12-22T03:08:17.642Z,726.00
2022-12-22T03:08:47.689Z,734.00
2022-12-22T03:09:17.725Z,737.00
2022-12-22T03:09:47.772Z,729.00
2022-12-22T03:10:17.801Z,728.00
2022-12-22T03:10:47.845Z,728.00
2022-12-22T03:11:17.900Z,728.00
2022-12-22T03:11:47.936Z,726.00
2022-12-22T03:12:17.974Z,724.00
2022-12-22T03:12:48.047Z,719.00
2022-12-22T03:13:18.048Z,730.00
2022-12-22T03:13:48.092Z,732.00
2022-12-22T03:14:18.121Z,731.00
2022-12-22T03:14:48.201Z,729.00
2022-12-22T03:15:18.284Z,727.00
2022-12-22T03:15:48.397Z,733.00
2022-12-22T03:16:18.558Z,733.00
2022-12-22T03:16:48.581Z,730.00
2022-12-22T03:17:18.666Z,731.00
2022-12-22T03:17:48.753Z,733.00
2022-12-22T03:18:18.842Z,731.00
2022-12-22T03:18:48.935Z,730.00
2022-12-22T03:19:19.036Z,728.00
2022-12-22T03:19:49.095Z,730.00
2022-12-22T03:20:19.181Z,731.00
2022-12-22T03:20:49.261Z,730.00
2022-12-22T03:21:19.351Z,729.00
2022-12-22T03:21:49.446Z,729.00
2022-12-22T03:22:19.421Z,727.00
2022-12-22T03:22:49.533Z,726.00
2022-12-22T03:23:19.581Z,729.00
2022-12-22T03:23:49.676Z,730.00
2022-12-22T03:24:19.767Z,730.00
2022-12-22T03:24:49.856Z,728.00
2022-12-22T03:25:19.933Z,727.00
2022-12-22T03:25:50.016Z,728.00
2022-12-22T03:26:20.092Z,728.00
2022-12-22T03:26:50.207Z,725.00
2022-12-22T03:27:20.292Z,726.00
2022-12-22T03:27:50.364Z,725.00
2022-12-22T03:28:20.455Z,726.00
2022-12-22T03:28:50.538Z,727.00
2022-12-22T03:29:20.625Z,728.00
2022-12-22T03:29:50.714Z,728.00
2022-12-22T03:30:20.792Z,728.00
2022-12-22T03:30:50.872Z,729.00
2022-12-22T03:31:21.008Z,731.00
2022-12-22T03:31:51.069Z,730.00
2022-12-22T03:32:21.026Z,726.00
2022-12-22T03:32:51.120Z,725.00
2022-12-22T03:33:21.209Z,728.00
2022-12-22T03:33:51.296Z,726.00
2022-12-22T03:34:21.434Z,727.00
2022-12-22T03:34:51.375Z,727.00
2022-12-22T03:35:21.457Z,723.00
2022-12-22T03:35:51.537Z,723.00
2022-12-22T03:36:21.625Z,726.00
2022-12-22T03:36:51.700Z,725.00
2022-12-22T03:37:21.790Z,727.00
2022-12-22T03:37:51.883Z,728.00
2022-12-22T03:38:21.973Z,724.00
2022-12-22T03:38:52.045Z,724.00
2022-12-22T03:39:22.143Z,721.00
2022-12-22T03:39:52.231Z,721.00
2022-12-22T03:40:22.312Z,718.00
2022-12-22T03:40:52.399Z,719.00
2022-12-22T03:41:22.499Z,717.00
2022-12-22T03:41:52.591Z,719.00
2022-12-22T03:42:22.673Z,718.00
2022-12-22T03:42:52.750Z,718.00
2022-12-22T03:43:22.840Z,719.00
2022-12-22T03:43:52.930Z,719.00
2022-12-22T03:44:23.008Z,719.00
2022-12-22T03:44:53.093Z,723.00
2022-12-22T03:45:23.178Z,725.00
2022-12-22T03:45:53.281Z,726.00
2022-12-22T03:46:23.381Z,726.00
2022-12-22T03:46:53.447Z,724.00
2022-12-22T03:47:23.415Z,726.00
2022-12-22T03:47:53.499Z,724.00
2022-12-22T03:48:23.582Z,725.00
2022-12-22T03:48:53.669Z,724.00
2022-12-22T03:49:23.743Z,723.00
2022-12-22T03:49:53.855Z,725.00
2022-12-22T03:50:23.927Z,723.00
2022-12-22T03:50:54.027Z,724.00
2022-12-22T03:51:24.101Z,724.00
2022-12-22T03:51:54.196Z,726.00
2022-12-22T03:52:24.304Z,726.00
2022-12-22T03:52:54.399Z,724.00
2022-12-22T03:53:24.479Z,727.00
2022-12-22T03:53:54.557Z,726.00
2022-12-22T03:54:24.643Z,719.00
2022-12-22T03:54:54.737Z,720.00
2022-12-22T03:55:24.812Z,718.00
2022-12-22T03:55:54.890Z,717.00
2022-12-22T03:56:24.974Z,717.00
2022-12-22T03:56:55.099Z,718.00
2022-12-22T03:57:25.209Z,718.00
2022-12-22T03:57:55.170Z,718.00
2022-12-22T03:58:25.260Z,717.00
2022-12-22T03:58:55.345Z,717.00
2022-12-22T03:59:25.434Z,717.00
2022-12-22T03:59:55.510Z,719.00
2022-12-22T04:00:25.591Z,718.00
2022-12-22T04:00:55.786Z,719.00
2022-12-22T04:01:26.014Z,716.00
2022-12-22T04:01:55.978Z,723.00
2022-12-22T04:02:25.955Z,719.00
2022-12-22T04:02:55.962Z,719.00
2022-12-22T04:03:25.904Z,721.00
2022-12-22T04:03:55.917Z,722.00
2022-12-22T04:04:25.980Z,720.00
2022-12-22T04:04:56.037Z,718.00
2022-12-22T04:05:26.074Z,718.00
2022-12-22T04:05:56.115Z,715.00
2022-12-22T04:06:26.149Z,716.00
2022-12-22T04:06:56.182Z,718.00
2022-12-22T04:07:26.253Z,724.00
2022-12-22T04:07:56.296Z,724.00
2022-12-22T04:08:26.336Z,725.00
2022-12-22T04:08:56.399Z,723.00
2022-12-22T04:09:26.436Z,724.00
2022-12-22T04:09:56.554Z,721.00
2022-12-22T04:10:26.608Z,720.00
2022-12-22T04:10:56.646Z,720.00
2022-12-22T04:11:26.690Z,737.00
2022-12-22T04:11:56.744Z,725.00
2022-12-22T04:12:26.801Z,720.00
2022-12-22T04:12:56.882Z,717.00
2022-12-22T04:13:26.925Z,715.00
2022-12-22T04:13:56.969Z,714.00
2022-12-22T04:14:33.465Z,713.00
2022-12-22T04:14:57.109Z,712.00
2022-12-22T04:15:27.180Z,711.00
2022-12-22T04:15:57.335Z,715.00
2022-12-22T04:16:27.350Z,716.00
2022-12-22T04:16:57.355Z,715.00
2022-12-22T04:17:27.352Z,713.00
2022-12-22T04:17:57.433Z,715.00
2022-12-22T04:18:27.517Z,713.00
2022-12-22T04:18:57.601Z,711.00
2022-12-22T04:19:27.686Z,711.00
2022-12-22T04:19:57.920Z,714.00
2022-12-22T04:20:27.881Z,714.00
2022-12-22T04:20:57.981Z,716.00
2022-12-22T04:21:27.941Z,715.00
2022-12-22T04:21:58.040Z,712.00
2022-12-22T04:22:28.133Z,714.00
2022-12-22T04:22:58.259Z,714.00
2022-12-22T04:23:28.312Z,712.00
2022-12-22T04:23:58.398Z,715.00
2022-12-22T04:24:28.510Z,716.00
2022-12-22T04:24:58.577Z,716.00
2022-12-22T04:25:28.655Z,720.00
2022-12-22T04:25:58.733Z,720.00
2022-12-22T04:26:28.840Z,721.00
2022-12-22T04:26:58.922Z,721.00
2022-12-22T04:27:29.011Z,719.00
2022-12-22T04:27:59.099Z,719.00
2022-12-22T04:28:29.215Z,720.00
2022-12-22T04:28:59.328Z,720.00
2022-12-22T04:29:29.302Z,718.00
2022-12-22T04:29:59.383Z,717.00
2022-12-22T04:30:29.485Z,717.00
2022-12-22T04:30:59.563Z,718.00
2022-12-22T04:31:29.669Z,721.00
2022-12-22T04:31:59.825Z,720.00
2022-12-22T04:32:29.848Z,720.00
2022-12-22T04:32:59.792Z,716.00
2022-12-22T04:33:29.889Z,714.00
2022-12-22T04:33:59.968Z,719.00
2022-12-22T04:34:30.066Z,716.00
2022-12-22T04:35:00.154Z,717.00
2022-12-22T04:35:30.217Z,716.00
2022-12-22T04:36:00.303Z,711.00
2022-12-22T04:36:30.383Z,708.00
2022-12-22T04:37:09.924Z,707.00
2022-12-22T04:37:30.546Z,709.00
2022-12-22T04:38:00.626Z,707.00
2022-12-22T04:38:30.708Z,704.00
2022-12-22T04:39:00.796Z,704.00
2022-12-22T04:39:30.900Z,700.00
2022-12-22T04:40:00.986Z,702.00
2022-12-22T04:40:31.049Z,705.00
2022-12-22T04:41:01.135Z,705.00
2022-12-22T04:41:31.230Z,713.00
2022-12-22T04:42:01.306Z,707.00
2022-12-22T04:42:31.402Z,706.00
2022-12-22T04:43:01.515Z,706.00
2022-12-22T04:43:31.571Z,707.00
2022-12-22T04:44:01.685Z,717.00
2022-12-22T04:44:31.766Z,715.00
2022-12-22T04:45:01.857Z,714.00
2022-12-22T04:45:32.179Z,717.00
2022-12-22T04:46:02.071Z,715.00
2022-12-22T04:46:32.139Z,713.00
2022-12-22T04:47:02.056Z,714.00
2022-12-22T04:47:32.161Z,714.00
2022-12-22T04:48:02.236Z,714.00
2022-12-22T04:48:32.312Z,709.00
2022-12-22T04:49:02.413Z,709.00
2022-12-22T04:49:32.494Z,706.00
2022-12-22T04:50:02.635Z,701.00
2022-12-22T04:50:32.683Z,705.00
2022-12-22T04:51:02.779Z,707.00
2022-12-22T04:51:32.889Z,707.00
2022-12-22T04:52:02.961Z,709.00
2022-12-22T04:52:33.050Z,713.00
2022-12-22T04:53:03.119Z,711.00
2022-12-22T04:53:33.203Z,711.00
2022-12-22T04:54:03.298Z,711.00
2022-12-22T04:54:33.369Z,707.00
2022-12-22T04:55:03.458Z,705.00
2022-12-22T04:55:33.541Z,707.00
2022-12-22T04:56:03.627Z,709.00
2022-12-22T04:56:33.711Z,709.00
2022-12-22T04:57:03.792Z,707.00
2022-12-22T04:57:40.065Z,709.00
2022-12-22T04:58:03.976Z,707.00
2022-12-22T04:58:34.046Z,706.00
2022-12-22T04:59:04.120Z,705.00
2022-12-22T04:59:34.214Z,702.00
2022-12-22T05:00:04.292Z,704.00
2022-12-22T05:00:34.377Z,704.00
2022-12-22T05:01:04.541Z,706.00
2022-12-22T05:01:34.607Z,706.00
2022-12-22T05:02:04.665Z,710.00
2022-12-22T05:02:34.815Z,711.00
2022-12-22T05:03:04.815Z,715.00
2022-12-22T05:03:34.742Z,711.00
2022-12-22T05:04:04.705Z,713.00
2022-12-22T05:04:34.786Z,714.00
2022-12-22T05:05:04.829Z,715.00
2022-12-22T05:05:34.897Z,716.00
2022-12-22T05:06:04.904Z,718.00
2022-12-22T05:06:34.953Z,713.00
2022-12-22T05:07:04.989Z,716.00
2022-12-22T05:07:35.058Z,729.00
2022-12-22T05:08:05.103Z,739.00
2022-12-22T05:08:35.147Z,738.00
2022-12-22T05:09:05.185Z,736.00
2022-12-22T05:09:35.244Z,732.00
2022-12-22T05:10:05.282Z,729.00
2022-12-22T05:10:35.335Z,741.00
2022-12-22T05:11:05.421Z,744.00
2022-12-22T05:11:35.485Z,743.00
2022-12-22T05:12:05.518Z,746.00
2022-12-22T05:12:35.570Z,743.00
2022-12-22T05:13:05.606Z,743.00
2022-12-22T05:13:35.653Z,744.00
2022-12-22T05:14:07.527Z,742.00
2022-12-22T05:14:35.691Z,743.00
2022-12-22T05:15:05.772Z,744.00
2022-12-22T05:15:35.853Z,745.00
2022-12-22T05:16:05.939Z,748.00
2022-12-22T05:16:36.180Z,751.00
2022-12-22T05:17:06.102Z,751.00
2022-12-22T05:17:36.109Z,753.00
2022-12-22T05:18:06.207Z,755.00
2022-12-22T05:18:36.300Z,755.00
2022-12-22T05:19:06.373Z,756.00
2022-12-22T05:19:36.473Z,761.00
2022-12-22T05:20:06.540Z,757.00
2022-12-22T05:20:36.624Z,756.00
2022-12-22T05:21:06.732Z,759.00
2022-12-22T05:21:36.797Z,759.00
2022-12-22T05:22:06.871Z,761.00
2022-12-22T05:22:36.960Z,767.00
2022-12-22T05:23:07.061Z,763.00
2022-12-22T05:23:37.158Z,764.00
2022-12-22T05:24:07.221Z,761.00
2022-12-22T05:24:37.309Z,760.00
2022-12-22T05:25:07.395Z,760.00
2022-12-22T05:25:37.471Z,764.00
2022-12-22T05:26:07.546Z,766.00
2022-12-22T05:26:37.646Z,762.00
2022-12-22T05:27:07.732Z,767.00
2022-12-22T05:27:37.816Z,765.00
2022-12-22T05:28:07.899Z,766.00
2022-12-22T05:28:37.985Z,766.00
2022-12-22T05:29:08.075Z,768.00
2022-12-22T05:29:38.161Z,766.00
2022-12-22T05:30:08.238Z,769.00
2022-12-22T05:30:38.354Z,764.00
2022-12-22T05:31:08.376Z,768.00
2022-12-22T05:31:41.858Z,769.00
2022-12-22T05:32:08.469Z,767.00
2022-12-22T05:32:38.543Z,768.00
2022-12-22T05:33:08.647Z,768.00
2022-12-22T05:33:38.732Z,764.00
2022-12-22T05:34:08.807Z,766.00
2022-12-22T05:34:38.884Z,765.00
2022-12-22T05:35:08.971Z,764.00
2022-12-22T05:35:39.055Z,766.00
2022-12-22T05:36:09.177Z,768.00
2022-12-22T05:36:39.260Z,770.00
2022-12-22T05:37:09.247Z,772.00
2022-12-22T05:37:39.353Z,770.00
2022-12-22T05:38:09.410Z,772.00
2022-12-22T05:38:39.496Z,777.00
2022-12-22T05:39:09.633Z,778.00
2022-12-22T05:39:39.607Z,774.00
2022-12-22T05:40:09.699Z,776.00
2022-12-22T05:40:39.782Z,776.00
2022-12-22T05:41:09.864Z,777.00
2022-12-22T05:41:40.005Z,777.00
2022-12-22T05:42:10.057Z,779.00
2022-12-22T05:42:40.143Z,784.00
2022-12-22T05:43:10.266Z,785.00
2022-12-22T05:43:40.338Z,785.00
2022-12-22T05:44:10.422Z,788.00
2022-12-22T05:44:40.503Z,788.00
2022-12-22T05:45:10.577Z,793.00
2022-12-22T05:45:40.807Z,792.00
2022-12-22T05:46:10.841Z,792.00
2022-12-22T05:46:40.976Z,795.00
2022-12-22T05:47:10.885Z,795.00
2022-12-22T05:47:40.973Z,795.00
2022-12-22T05:48:11.082Z,798.00
2022-12-22T05:48:41.145Z,798.00
2022-12-22T05:49:11.235Z,800.00
2022-12-22T05:49:41.323Z,800.00
2022-12-22T05:50:11.396Z,803.00
2022-12-22T05:50:41.479Z,803.00
2022-12-22T05:51:11.510Z,803.00
2022-12-22T05:51:41.651Z,804.00
2022-12-22T05:52:11.703Z,803.00
2022-12-22T05:52:41.795Z,804.00
2022-12-22T05:53:11.874Z,802.00
2022-12-22T05:53:41.948Z,801.00
2022-12-22T05:54:12.040Z,802.00
2022-12-22T05:54:42.123Z,803.00
2022-12-22T05:55:12.200Z,801.00
2022-12-22T05:55:42.272Z,803.00
2022-12-22T05:56:12.364Z,803.00
2022-12-22T05:56:42.459Z,805.00
2022-12-22T05:57:12.544Z,805.00
2022-12-22T05:57:42.628Z,804.00
2022-12-22T05:58:12.707Z,803.00
2022-12-22T05:58:42.794Z,802.00
2022-12-22T05:59:12.896Z,799.00
2022-12-22T05:59:42.983Z,799.00
2022-12-22T06:00:13.062Z,798.00
2022-12-22T06:00:43.141Z,804.00
2022-12-22T06:01:13.222Z,806.00
2022-12-22T06:01:43.363Z,806.00
2022-12-22T06:02:13.570Z,805.00
2022-12-22T06:02:43.487Z,807.00
2022-12-22T06:03:13.515Z,808.00
2022-12-22T06:03:43.571Z,807.00
2022-12-22T06:04:13.673Z,807.00
2022-12-22T06:04:43.576Z,807.00
2022-12-22T06:05:13.651Z,810.00
2022-12-22T06:05:43.681Z,809.00
2022-12-22T06:06:13.708Z,811.00
2022-12-22T06:06:43.906Z,816.00
2022-12-22T06:07:13.866Z,819.00
2022-12-22T06:07:43.885Z,818.00
2022-12-22T06:08:13.923Z,820.00
2022-12-22T06:08:43.960Z,820.00
2022-12-22T06:09:13.986Z,819.00
2022-12-22T06:09:44.036Z,819.00
2022-12-22T06:10:14.090Z,819.00
2022-12-22T06:10:44.121Z,818.00
2022-12-22T06:11:14.155Z,815.00
2022-12-22T06:11:44.249Z,813.00
2022-12-22T06:12:14.272Z,814.00
2022-12-22T06:12:44.319Z,813.00
2022-12-22T06:13:14.353Z,812.00
2022-12-22T06:13:44.391Z,813.00
2022-12-22T06:14:14.428Z,813.00
2022-12-22T06:14:44.517Z,812.00
2022-12-22T06:15:14.611Z,812.00